sensor_id;sensor_type;location;lat;lon;timestamp;P1;durP1;ratioP1;P2;durP2;ratioP2
60700;SDS011;46541;49.894;10.886;2022-10-23T00:01:44;12.90;;;6.35;;
60700;SDS011;46541;49.894;10.886;2022-10-23T00:04:15;12.18;;;6.35;;
60700;SDS011;46541;49.894;10.886;2022-10-23T00:06:45;9.80;;;6.00;;
60700;SDS011;46541;49.894;10.886;2022-10-23T00:09:14;9.13;;;5.80;;
60700;SDS011;46541;49.894;10.886;2022-10-23T00:11:43;14.52;;;6.53;;
60700;SDS011;46541;49.894;10.886;2022-10-23T00:14:14;11.05;;;6.70;;
60700;SDS011;46541;49.894;10.886;2022-10-23T00:16:41;8.70;;;5.80;;
60700;SDS011;46541;49.894;10.886;2022-10-23T00:19:08;12.60;;;5.43;;
60700;SDS011;46541;49.894;10.886;2022-10-23T00:21:35;11.20;;;4.60;;
60700;SDS011;46541;49.894;10.886;2022-10-23T00:24:02;13.70;;;4.63;;
60700;SDS011;46541;49.894;10.886;2022-10-23T00:26:29;10.45;;;4.60;;
60700;SDS011;46541;49.894;10.886;2022-10-23T00:28:56;11.05;;;4.93;;
60700;SDS011;46541;49.894;10.886;2022-10-23T00:31:23;8.30;;;4.47;;
60700;SDS011;46541;49.894;10.886;2022-10-23T00:33:50;10.48;;;4.68;;
60700;SDS011;46541;49.894;10.886;2022-10-23T00:36:18;7.57;;;4.60;;
60700;SDS011;46541;49.894;10.886;2022-10-23T00:38:46;9.65;;;4.00;;
60700;SDS011;46541;49.894;10.886;2022-10-23T00:41:15;8.77;;;4.15;;
60700;SDS011;46541;49.894;10.886;2022-10-23T00:46:24;9.00;;;4.07;;
60700;SDS011;46541;49.894;10.886;2022-10-23T00:48:51;7.57;;;3.97;;
60700;SDS011;46541;49.894;10.886;2022-10-23T00:51:18;13.85;;;5.25;;
60700;SDS011;46541;49.894;10.886;2022-10-23T00:53:45;11.20;;;3.90;;
60700;SDS011;46541;49.894;10.886;2022-10-23T00:56:34;7.93;;;3.75;;
60700;SDS011;46541;49.894;10.886;2022-10-23T00:59:04;9.00;;;4.00;;
60700;SDS011;46541;49.894;10.886;2022-10-23T01:01:31;12.20;;;4.65;;
60700;SDS011;46541;49.894;10.886;2022-10-23T01:03:58;9.00;;;4.78;;
60700;SDS011;46541;49.894;10.886;2022-10-23T01:11:56;14.18;;;7.45;;
60700;SDS011;46541;49.894;10.886;2022-10-23T01:14:34;12.25;;;5.78;;
60700;SDS011;46541;49.894;10.886;2022-10-23T01:17:39;14.57;;;4.60;;
60700;SDS011;46541;49.894;10.886;2022-10-23T01:31:01;10.90;;;5.55;;
60700;SDS011;46541;49.894;10.886;2022-10-23T01:33:55;9.40;;;4.07;;
60700;SDS011;46541;49.894;10.886;2022-10-23T01:36:25;12.30;;;4.25;;
60700;SDS011;46541;49.894;10.886;2022-10-23T01:41:42;8.38;;;4.22;;
60700;SDS011;46541;49.894;10.886;2022-10-23T01:44:58;8.55;;;4.03;;
60700;SDS011;46541;49.894;10.886;2022-10-23T01:47:12;9.75;;;5.38;;
60700;SDS011;46541;49.894;10.886;2022-10-23T01:49:40;8.20;;;4.97;;
60700;SDS011;46541;49.894;10.886;2022-10-23T01:52:09;15.07;;;5.88;;
60700;SDS011;46541;49.894;10.886;2022-10-23T01:54:40;14.65;;;7.13;;
60700;SDS011;46541;49.894;10.886;2022-10-23T01:57:10;23.23;;;9.35;;
60700;SDS011;46541;49.894;10.886;2022-10-23T01:59:42;21.42;;;10.20;;
60700;SDS011;46541;49.894;10.886;2022-10-23T02:02:12;24.17;;;9.93;;
60700;SDS011;46541;49.894;10.886;2022-10-23T02:04:52;23.15;;;10.32;;
60700;SDS011;46541;49.894;10.886;2022-10-23T02:07:26;21.33;;;7.63;;
60700;SDS011;46541;49.894;10.886;2022-10-23T02:09:53;16.88;;;6.57;;
60700;SDS011;46541;49.894;10.886;2022-10-23T02:12:42;14.50;;;5.47;;
60700;SDS011;46541;49.894;10.886;2022-10-23T02:18:07;10.93;;;4.45;;
60700;SDS011;46541;49.894;10.886;2022-10-23T02:21:01;7.05;;;4.57;;
60700;SDS011;46541;49.894;10.886;2022-10-23T02:23:35;10.48;;;4.45;;
60700;SDS011;46541;49.894;10.886;2022-10-23T02:26:07;9.98;;;5.13;;
60700;SDS011;46541;49.894;10.886;2022-10-23T02:28:38;9.38;;;4.35;;
60700;SDS011;46541;49.894;10.886;2022-10-23T02:31:09;8.07;;;4.03;;
60700;SDS011;46541;49.894;10.886;2022-10-23T02:33:39;7.53;;;4.07;;
60700;SDS011;46541;49.894;10.886;2022-10-23T02:36:06;6.20;;;3.70;;
60700;SDS011;46541;49.894;10.886;2022-10-23T02:38:35;11.05;;;3.45;;
60700;SDS011;46541;49.894;10.886;2022-10-23T02:41:15;7.20;;;3.92;;
60700;SDS011;46541;49.894;10.886;2022-10-23T02:49:12;4.15;;;2.90;;
60700;SDS011;46541;49.894;10.886;2022-10-23T02:54:16;7.63;;;3.78;;
60700;SDS011;46541;49.894;10.886;2022-10-23T03:02:16;9.27;;;3.40;;
60700;SDS011;46541;49.894;10.886;2022-10-23T03:04:39;9.70;;;3.78;;
60700;SDS011;46541;49.894;10.886;2022-10-23T03:07:12;5.93;;;3.00;;
60700;SDS011;46541;49.894;10.886;2022-10-23T03:09:40;8.82;;;3.53;;
60700;SDS011;46541;49.894;10.886;2022-10-23T03:12:06;5.85;;;2.90;;
60700;SDS011;46541;49.894;10.886;2022-10-23T03:14:33;6.32;;;2.88;;
60700;SDS011;46541;49.894;10.886;2022-10-23T03:17:00;9.05;;;5.03;;
60700;SDS011;46541;49.894;10.886;2022-10-23T03:19:27;10.43;;;3.38;;
60700;SDS011;46541;49.894;10.886;2022-10-23T03:21:53;8.13;;;3.00;;
60700;SDS011;46541;49.894;10.886;2022-10-23T03:24:20;9.20;;;4.10;;
60700;SDS011;46541;49.894;10.886;2022-10-23T03:26:47;7.95;;;2.55;;
60700;SDS011;46541;49.894;10.886;2022-10-23T03:29:14;3.95;;;2.80;;
60700;SDS011;46541;49.894;10.886;2022-10-23T03:31:40;7.50;;;3.08;;
60700;SDS011;46541;49.894;10.886;2022-10-23T03:34:07;4.85;;;2.90;;
60700;SDS011;46541;49.894;10.886;2022-10-23T03:36:36;6.40;;;2.92;;
60700;SDS011;46541;49.894;10.886;2022-10-23T03:39:03;5.60;;;3.47;;
60700;SDS011;46541;49.894;10.886;2022-10-23T03:41:30;4.05;;;3.13;;
60700;SDS011;46541;49.894;10.886;2022-10-23T03:43:58;5.88;;;2.65;;
60700;SDS011;46541;49.894;10.886;2022-10-23T03:46:24;6.22;;;3.17;;
60700;SDS011;46541;49.894;10.886;2022-10-23T03:48:51;5.50;;;2.60;;
60700;SDS011;46541;49.894;10.886;2022-10-23T03:51:18;5.10;;;2.80;;
60700;SDS011;46541;49.894;10.886;2022-10-23T03:53:45;8.43;;;2.63;;
60700;SDS011;46541;49.894;10.886;2022-10-23T03:56:11;6.10;;;2.60;;
60700;SDS011;46541;49.894;10.886;2022-10-23T03:58:38;6.18;;;3.10;;
60700;SDS011;46541;49.894;10.886;2022-10-23T04:01:05;5.32;;;3.42;;
60700;SDS011;46541;49.894;10.886;2022-10-23T04:03:32;4.35;;;3.00;;
60700;SDS011;46541;49.894;10.886;2022-10-23T04:05:59;8.27;;;3.80;;
60700;SDS011;46541;49.894;10.886;2022-10-23T04:08:25;2.80;;;2.50;;
60700;SDS011;46541;49.894;10.886;2022-10-23T04:10:53;6.43;;;3.08;;
60700;SDS011;46541;49.894;10.886;2022-10-23T04:13:20;4.28;;;3.05;;
60700;SDS011;46541;49.894;10.886;2022-10-23T04:15:47;5.50;;;2.65;;
60700;SDS011;46541;49.894;10.886;2022-10-23T04:18:18;8.57;;;2.92;;
60700;SDS011;46541;49.894;10.886;2022-10-23T04:20:48;6.70;;;2.90;;
60700;SDS011;46541;49.894;10.886;2022-10-23T04:23:16;6.45;;;2.95;;
60700;SDS011;46541;49.894;10.886;2022-10-23T04:25:43;5.18;;;2.83;;
60700;SDS011;46541;49.894;10.886;2022-10-23T04:28:10;3.17;;;2.75;;
60700;SDS011;46541;49.894;10.886;2022-10-23T04:30:37;6.05;;;2.78;;
60700;SDS011;46541;49.894;10.886;2022-10-23T04:33:03;3.25;;;2.92;;
60700;SDS011;46541;49.894;10.886;2022-10-23T04:35:30;7.22;;;3.17;;
60700;SDS011;46541;49.894;10.886;2022-10-23T04:37:57;6.82;;;3.53;;
60700;SDS011;46541;49.894;10.886;2022-10-23T04:40:24;4.15;;;3.40;;
60700;SDS011;46541;49.894;10.886;2022-10-23T04:42:50;5.18;;;3.60;;
60700;SDS011;46541;49.894;10.886;2022-10-23T04:45:17;4.63;;;3.45;;
60700;SDS011;46541;49.894;10.886;2022-10-23T04:47:44;6.45;;;3.60;;
60700;SDS011;46541;49.894;10.886;2022-10-23T04:50:11;5.00;;;4.00;;
60700;SDS011;46541;49.894;10.886;2022-10-23T04:52:38;7.97;;;3.67;;
60700;SDS011;46541;49.894;10.886;2022-10-23T04:55:05;6.45;;;3.83;;
60700;SDS011;46541;49.894;10.886;2022-10-23T04:57:33;6.38;;;4.20;;
60700;SDS011;46541;49.894;10.886;2022-10-23T05:00:00;7.13;;;3.78;;
60700;SDS011;46541;49.894;10.886;2022-10-23T05:02:27;8.48;;;3.92;;
60700;SDS011;46541;49.894;10.886;2022-10-23T05:04:53;5.95;;;3.63;;
60700;SDS011;46541;49.894;10.886;2022-10-23T05:07:20;5.55;;;3.33;;
60700;SDS011;46541;49.894;10.886;2022-10-23T05:09:52;5.47;;;3.08;;
60700;SDS011;46541;49.894;10.886;2022-10-23T05:12:18;7.50;;;3.20;;
60700;SDS011;46541;49.894;10.886;2022-10-23T05:14:45;5.30;;;3.58;;
60700;SDS011;46541;49.894;10.886;2022-10-23T05:17:14;14.10;;;3.92;;
60700;SDS011;46541;49.894;10.886;2022-10-23T05:19:47;5.40;;;4.15;;
60700;SDS011;46541;49.894;10.886;2022-10-23T05:22:19;3.90;;;3.25;;
60700;SDS011;46541;49.894;10.886;2022-10-23T05:24:47;3.92;;;3.42;;
60700;SDS011;46541;49.894;10.886;2022-10-23T05:27:15;5.28;;;3.55;;
60700;SDS011;46541;49.894;10.886;2022-10-23T05:29:42;6.03;;;3.65;;
60700;SDS011;46541;49.894;10.886;2022-10-23T05:32:09;5.25;;;3.60;;
60700;SDS011;46541;49.894;10.886;2022-10-23T05:34:39;5.18;;;3.03;;
60700;SDS011;46541;49.894;10.886;2022-10-23T05:37:08;3.50;;;2.88;;
60700;SDS011;46541;49.894;10.886;2022-10-23T05:39:39;4.10;;;3.03;;
60700;SDS011;46541;49.894;10.886;2022-10-23T05:42:06;5.28;;;3.25;;
60700;SDS011;46541;49.894;10.886;2022-10-23T05:44:32;7.00;;;3.50;;
60700;SDS011;46541;49.894;10.886;2022-10-23T05:47:00;4.30;;;2.97;;
60700;SDS011;46541;49.894;10.886;2022-10-23T05:49:27;3.70;;;2.85;;
60700;SDS011;46541;49.894;10.886;2022-10-23T05:51:54;4.63;;;3.22;;
60700;SDS011;46541;49.894;10.886;2022-10-23T05:54:20;4.90;;;3.13;;
60700;SDS011;46541;49.894;10.886;2022-10-23T05:56:47;8.85;;;3.47;;
60700;SDS011;46541;49.894;10.886;2022-10-23T05:59:14;5.85;;;3.20;;
60700;SDS011;46541;49.894;10.886;2022-10-23T06:01:47;7.25;;;3.30;;
60700;SDS011;46541;49.894;10.886;2022-10-23T06:04:14;3.72;;;3.20;;
60700;SDS011;46541;49.894;10.886;2022-10-23T06:06:40;4.53;;;3.22;;
60700;SDS011;46541;49.894;10.886;2022-10-23T06:09:09;4.75;;;3.17;;
60700;SDS011;46541;49.894;10.886;2022-10-23T06:11:36;4.13;;;3.13;;
60700;SDS011;46541;49.894;10.886;2022-10-23T06:14:03;6.05;;;3.42;;
60700;SDS011;46541;49.894;10.886;2022-10-23T06:16:29;5.07;;;3.85;;
60700;SDS011;46541;49.894;10.886;2022-10-23T06:18:56;5.93;;;3.70;;
60700;SDS011;46541;49.894;10.886;2022-10-23T06:21:23;4.65;;;3.35;;
60700;SDS011;46541;49.894;10.886;2022-10-23T06:23:50;6.20;;;4.85;;
60700;SDS011;46541;49.894;10.886;2022-10-23T06:26:18;6.13;;;3.92;;
60700;SDS011;46541;49.894;10.886;2022-10-23T06:28:45;8.55;;;4.18;;
60700;SDS011;46541;49.894;10.886;2022-10-23T06:31:13;5.85;;;4.15;;
60700;SDS011;46541;49.894;10.886;2022-10-23T06:33:41;5.90;;;4.07;;
60700;SDS011;46541;49.894;10.886;2022-10-23T06:36:08;4.13;;;3.38;;
60700;SDS011;46541;49.894;10.886;2022-10-23T06:38:36;6.15;;;3.25;;
60700;SDS011;46541;49.894;10.886;2022-10-23T06:41:07;4.10;;;3.67;;
60700;SDS011;46541;49.894;10.886;2022-10-23T06:43:38;4.63;;;3.28;;
60700;SDS011;46541;49.894;10.886;2022-10-23T06:46:05;5.53;;;3.90;;
60700;SDS011;46541;49.894;10.886;2022-10-23T06:48:32;6.97;;;4.00;;
60700;SDS011;46541;49.894;10.886;2022-10-23T06:51:03;5.15;;;3.80;;
60700;SDS011;46541;49.894;10.886;2022-10-23T06:53:31;6.75;;;4.32;;
60700;SDS011;46541;49.894;10.886;2022-10-23T06:55:59;7.72;;;4.18;;
60700;SDS011;46541;49.894;10.886;2022-10-23T06:58:26;12.38;;;5.07;;
60700;SDS011;46541;49.894;10.886;2022-10-23T07:00:54;5.97;;;4.20;;
60700;SDS011;46541;49.894;10.886;2022-10-23T07:03:21;8.88;;;4.07;;
60700;SDS011;46541;49.894;10.886;2022-10-23T07:05:48;6.22;;;5.00;;
60700;SDS011;46541;49.894;10.886;2022-10-23T07:08:15;9.50;;;4.53;;
60700;SDS011;46541;49.894;10.886;2022-10-23T07:10:42;6.65;;;4.28;;
60700;SDS011;46541;49.894;10.886;2022-10-23T07:13:09;7.03;;;5.03;;
60700;SDS011;46541;49.894;10.886;2022-10-23T07:15:37;5.93;;;4.72;;
60700;SDS011;46541;49.894;10.886;2022-10-23T07:18:04;8.48;;;5.60;;
60700;SDS011;46541;49.894;10.886;2022-10-23T07:20:32;6.55;;;4.90;;
60700;SDS011;46541;49.894;10.886;2022-10-23T07:22:58;4.97;;;4.45;;
60700;SDS011;46541;49.894;10.886;2022-10-23T07:25:25;5.32;;;4.10;;
60700;SDS011;46541;49.894;10.886;2022-10-23T07:27:52;6.40;;;3.90;;
60700;SDS011;46541;49.894;10.886;2022-10-23T07:30:21;4.35;;;3.65;;
60700;SDS011;46541;49.894;10.886;2022-10-23T07:32:49;7.75;;;3.90;;
60700;SDS011;46541;49.894;10.886;2022-10-23T07:35:16;5.13;;;3.72;;
60700;SDS011;46541;49.894;10.886;2022-10-23T07:37:43;4.22;;;3.60;;
60700;SDS011;46541;49.894;10.886;2022-10-23T07:40:11;6.18;;;3.90;;
60700;SDS011;46541;49.894;10.886;2022-10-23T07:42:37;4.45;;;3.53;;
60700;SDS011;46541;49.894;10.886;2022-10-23T07:45:05;6.32;;;3.58;;
60700;SDS011;46541;49.894;10.886;2022-10-23T07:47:33;4.60;;;3.42;;
60700;SDS011;46541;49.894;10.886;2022-10-23T07:50:00;5.45;;;3.83;;
60700;SDS011;46541;49.894;10.886;2022-10-23T07:52:27;5.28;;;4.47;;
60700;SDS011;46541;49.894;10.886;2022-10-23T07:55:00;9.32;;;6.93;;
60700;SDS011;46541;49.894;10.886;2022-10-23T07:57:27;7.85;;;5.88;;
60700;SDS011;46541;49.894;10.886;2022-10-23T07:59:53;4.75;;;4.03;;
60700;SDS011;46541;49.894;10.886;2022-10-23T08:02:20;4.07;;;3.60;;
60700;SDS011;46541;49.894;10.886;2022-10-23T08:04:48;5.93;;;3.20;;
60700;SDS011;46541;49.894;10.886;2022-10-23T08:07:15;5.65;;;4.00;;
60700;SDS011;46541;49.894;10.886;2022-10-23T08:09:42;5.88;;;4.85;;
60700;SDS011;46541;49.894;10.886;2022-10-23T08:12:09;4.70;;;4.05;;
60700;SDS011;46541;49.894;10.886;2022-10-23T08:14:35;6.13;;;4.85;;
60700;SDS011;46541;49.894;10.886;2022-10-23T08:17:02;7.15;;;4.55;;
60700;SDS011;46541;49.894;10.886;2022-10-23T08:19:30;6.10;;;4.18;;
60700;SDS011;46541;49.894;10.886;2022-10-23T08:21:57;5.45;;;4.20;;
60700;SDS011;46541;49.894;10.886;2022-10-23T08:24:24;6.90;;;3.83;;
60700;SDS011;46541;49.894;10.886;2022-10-23T08:26:51;4.47;;;3.67;;
60700;SDS011;46541;49.894;10.886;2022-10-23T08:29:17;5.28;;;3.35;;
60700;SDS011;46541;49.894;10.886;2022-10-23T08:31:44;5.10;;;3.90;;
60700;SDS011;46541;49.894;10.886;2022-10-23T08:34:11;5.43;;;3.67;;
60700;SDS011;46541;49.894;10.886;2022-10-23T08:36:38;4.45;;;3.40;;
60700;SDS011;46541;49.894;10.886;2022-10-23T08:39:05;5.22;;;3.88;;
60700;SDS011;46541;49.894;10.886;2022-10-23T08:41:34;5.72;;;4.72;;
60700;SDS011;46541;49.894;10.886;2022-10-23T08:46:39;9.70;;;6.63;;
60700;SDS011;46541;49.894;10.886;2022-10-23T08:52:12;14.57;;;8.50;;
60700;SDS011;46541;49.894;10.886;2022-10-23T08:57:29;6.80;;;4.85;;
60700;SDS011;46541;49.894;10.886;2022-10-23T09:00:18;6.18;;;4.40;;
60700;SDS011;46541;49.894;10.886;2022-10-23T09:02:47;15.98;;;10.85;;
60700;SDS011;46541;49.894;10.886;2022-10-23T09:05:22;17.17;;;12.55;;
60700;SDS011;46541;49.894;10.886;2022-10-23T09:13:26;5.72;;;4.18;;
60700;SDS011;46541;49.894;10.886;2022-10-23T09:19:21;6.93;;;4.80;;
60700;SDS011;46541;49.894;10.886;2022-10-23T09:21:52;8.40;;;5.18;;
60700;SDS011;46541;49.894;10.886;2022-10-23T09:24:21;7.82;;;4.97;;
60700;SDS011;46541;49.894;10.886;2022-10-23T09:26:51;6.53;;;3.97;;
60700;SDS011;46541;49.894;10.886;2022-10-23T09:29:24;7.57;;;3.55;;
60700;SDS011;46541;49.894;10.886;2022-10-23T09:32:02;4.32;;;3.47;;
60700;SDS011;46541;49.894;10.886;2022-10-23T09:34:31;4.72;;;3.33;;
60700;SDS011;46541;49.894;10.886;2022-10-23T09:37:00;7.38;;;4.10;;
60700;SDS011;46541;49.894;10.886;2022-10-23T09:41:57;9.35;;;4.53;;
60700;SDS011;46541;49.894;10.886;2022-10-23T09:44:28;6.38;;;4.38;;
60700;SDS011;46541;49.894;10.886;2022-10-23T09:47:19;6.05;;;4.57;;
60700;SDS011;46541;49.894;10.886;2022-10-23T09:49:47;13.23;;;6.05;;
60700;SDS011;46541;49.894;10.886;2022-10-23T09:57:18;8.60;;;4.82;;
60700;SDS011;46541;49.894;10.886;2022-10-23T10:10:44;7.35;;;3.78;;
60700;SDS011;46541;49.894;10.886;2022-10-23T10:13:35;5.95;;;3.25;;
60700;SDS011;46541;49.894;10.886;2022-10-23T10:21:53;6.65;;;3.20;;
60700;SDS011;46541;49.894;10.886;2022-10-23T10:27:29;5.40;;;4.37;;
60700;SDS011;46541;49.894;10.886;2022-10-23T10:30:12;7.85;;;5.10;;
60700;SDS011;46541;49.894;10.886;2022-10-23T10:33:08;8.88;;;6.35;;
60700;SDS011;46541;49.894;10.886;2022-10-23T10:38:33;12.88;;;6.25;;
60700;SDS011;46541;49.894;10.886;2022-10-23T10:46:38;8.23;;;4.80;;
60700;SDS011;46541;49.894;10.886;2022-10-23T10:51:56;5.43;;;3.40;;
60700;SDS011;46541;49.894;10.886;2022-10-23T10:59:58;4.78;;;3.15;;
60700;SDS011;46541;49.894;10.886;2022-10-23T11:02:37;6.13;;;2.92;;
60700;SDS011;46541;49.894;10.886;2022-10-23T11:07:37;3.22;;;2.28;;
60700;SDS011;46541;49.894;10.886;2022-10-23T11:10:17;6.60;;;3.28;;
60700;SDS011;46541;49.894;10.886;2022-10-23T11:12:45;7.38;;;3.38;;
60700;SDS011;46541;49.894;10.886;2022-10-23T11:15:13;3.10;;;2.22;;
60700;SDS011;46541;49.894;10.886;2022-10-23T11:18:02;5.88;;;3.30;;
60700;SDS011;46541;49.894;10.886;2022-10-23T11:23:37;3.95;;;2.65;;
60700;SDS011;46541;49.894;10.886;2022-10-23T11:37:32;10.10;;;5.28;;
60700;SDS011;46541;49.894;10.886;2022-10-23T11:40:00;6.43;;;3.70;;
60700;SDS011;46541;49.894;10.886;2022-10-23T11:42:45;4.55;;;2.20;;
60700;SDS011;46541;49.894;10.886;2022-10-23T11:47:59;3.67;;;2.20;;
60700;SDS011;46541;49.894;10.886;2022-10-23T11:50:30;6.63;;;3.47;;
60700;SDS011;46541;49.894;10.886;2022-10-23T11:53:05;7.25;;;3.17;;
60700;SDS011;46541;49.894;10.886;2022-10-23T12:03:57;4.55;;;1.27;;
60700;SDS011;46541;49.894;10.886;2022-10-23T12:06:40;5.22;;;1.00;;
60700;SDS011;46541;49.894;10.886;2022-10-23T12:14:33;2.78;;;1.80;;
60700;SDS011;46541;49.894;10.886;2022-10-23T12:17:00;1.92;;;1.10;;
60700;SDS011;46541;49.894;10.886;2022-10-23T12:19:29;1.50;;;1.30;;
60700;SDS011;46541;49.894;10.886;2022-10-23T12:22:12;3.50;;;1.30;;
60700;SDS011;46541;49.894;10.886;2022-10-23T12:27:23;4.18;;;1.85;;
60700;SDS011;46541;49.894;10.886;2022-10-23T12:38:45;3.95;;;1.88;;
60700;SDS011;46541;49.894;10.886;2022-10-23T12:41:24;1.73;;;1.23;;
60700;SDS011;46541;49.894;10.886;2022-10-23T12:43:59;2.20;;;1.40;;
60700;SDS011;46541;49.894;10.886;2022-10-23T12:46:46;1.98;;;1.52;;
60700;SDS011;46541;49.894;10.886;2022-10-23T12:49:19;2.05;;;1.45;;
60700;SDS011;46541;49.894;10.886;2022-10-23T12:59:49;2.05;;;1.42;;
60700;SDS011;46541;49.894;10.886;2022-10-23T13:02:24;2.42;;;1.35;;
60700;SDS011;46541;49.894;10.886;2022-10-23T13:04:53;1.15;;;1.02;;
60700;SDS011;46541;49.894;10.886;2022-10-23T13:07:25;2.85;;;2.10;;
60700;SDS011;46541;49.894;10.886;2022-10-23T13:09:54;6.25;;;4.07;;
60700;SDS011;46541;49.894;10.886;2022-10-23T13:12:27;4.25;;;2.00;;
60700;SDS011;46541;49.894;10.886;2022-10-23T13:15:00;3.22;;;1.90;;
60700;SDS011;46541;49.894;10.886;2022-10-23T13:20:09;3.30;;;1.65;;
60700;SDS011;46541;49.894;10.886;2022-10-23T13:25:33;3.13;;;2.15;;
60700;SDS011;46541;49.894;10.886;2022-10-23T13:30:55;5.82;;;2.45;;
60700;SDS011;46541;49.894;10.886;2022-10-23T13:38:43;1.83;;;1.42;;
60700;SDS011;46541;49.894;10.886;2022-10-23T13:41:34;1.95;;;1.40;;
60700;SDS011;46541;49.894;10.886;2022-10-23T13:44:06;6.65;;;1.33;;
60700;SDS011;46541;49.894;10.886;2022-10-23T13:46:34;2.22;;;1.40;;
60700;SDS011;46541;49.894;10.886;2022-10-23T13:49:01;2.58;;;1.38;;
60700;SDS011;46541;49.894;10.886;2022-10-23T13:51:28;1.98;;;1.10;;
60700;SDS011;46541;49.894;10.886;2022-10-23T13:53:58;5.22;;;1.13;;
60700;SDS011;46541;49.894;10.886;2022-10-23T13:56:26;1.83;;;1.10;;
60700;SDS011;46541;49.894;10.886;2022-10-23T13:58:53;3.05;;;1.10;;
60700;SDS011;46541;49.894;10.886;2022-10-23T14:01:27;5.82;;;1.55;;
60700;SDS011;46541;49.894;10.886;2022-10-23T14:03:57;5.57;;;0.98;;
60700;SDS011;46541;49.894;10.886;2022-10-23T14:06:24;2.00;;;1.17;;
60700;SDS011;46541;49.894;10.886;2022-10-23T14:08:51;2.13;;;1.42;;
60700;SDS011;46541;49.894;10.886;2022-10-23T14:11:18;2.95;;;1.10;;
60700;SDS011;46541;49.894;10.886;2022-10-23T14:13:46;2.15;;;1.20;;
60700;SDS011;46541;49.894;10.886;2022-10-23T14:16:14;1.10;;;1.00;;
60700;SDS011;46541;49.894;10.886;2022-10-23T14:18:42;1.85;;;1.38;;
60700;SDS011;46541;49.894;10.886;2022-10-23T14:21:11;2.65;;;1.20;;
60700;SDS011;46541;49.894;10.886;2022-10-23T14:23:40;3.05;;;1.27;;
60700;SDS011;46541;49.894;10.886;2022-10-23T14:26:09;1.77;;;1.50;;
60700;SDS011;46541;49.894;10.886;2022-10-23T14:28:37;5.28;;;1.50;;
60700;SDS011;46541;49.894;10.886;2022-10-23T14:31:05;2.47;;;1.23;;
60700;SDS011;46541;49.894;10.886;2022-10-23T14:33:33;1.42;;;1.23;;
60700;SDS011;46541;49.894;10.886;2022-10-23T14:36:00;2.08;;;1.58;;
60700;SDS011;46541;49.894;10.886;2022-10-23T14:38:27;1.45;;;1.30;;
60700;SDS011;46541;49.894;10.886;2022-10-23T14:40:54;1.67;;;1.23;;
60700;SDS011;46541;49.894;10.886;2022-10-23T14:43:22;2.53;;;1.35;;
60700;SDS011;46541;49.894;10.886;2022-10-23T14:45:49;2.78;;;1.17;;
60700;SDS011;46541;49.894;10.886;2022-10-23T14:48:16;2.38;;;1.25;;
60700;SDS011;46541;49.894;10.886;2022-10-23T14:50:44;3.00;;;1.30;;
60700;SDS011;46541;49.894;10.886;2022-10-23T14:53:12;1.65;;;1.27;;
60700;SDS011;46541;49.894;10.886;2022-10-23T14:55:39;1.85;;;1.40;;
60700;SDS011;46541;49.894;10.886;2022-10-23T14:58:06;2.20;;;1.33;;
60700;SDS011;46541;49.894;10.886;2022-10-23T15:00:33;3.90;;;2.25;;
60700;SDS011;46541;49.894;10.886;2022-10-23T15:03:00;3.03;;;2.65;;
60700;SDS011;46541;49.894;10.886;2022-10-23T15:05:27;4.72;;;2.45;;
60700;SDS011;46541;49.894;10.886;2022-10-23T15:07:54;1.80;;;1.48;;
60700;SDS011;46541;49.894;10.886;2022-10-23T15:10:21;2.85;;;1.63;;
60700;SDS011;46541;49.894;10.886;2022-10-23T15:12:48;2.55;;;1.77;;
60700;SDS011;46541;49.894;10.886;2022-10-23T15:15:14;10.93;;;6.40;;
60700;SDS011;46541;49.894;10.886;2022-10-23T15:17:41;13.23;;;6.03;;
60700;SDS011;46541;49.894;10.886;2022-10-23T15:20:09;23.45;;;13.30;;
60700;SDS011;46541;49.894;10.886;2022-10-23T15:22:35;6.22;;;4.80;;
60700;SDS011;46541;49.894;10.886;2022-10-23T15:25:02;3.13;;;1.98;;
60700;SDS011;46541;49.894;10.886;2022-10-23T15:27:30;6.68;;;3.92;;
60700;SDS011;46541;49.894;10.886;2022-10-23T15:29:56;5.22;;;3.20;;
60700;SDS011;46541;49.894;10.886;2022-10-23T15:32:23;5.35;;;3.13;;
60700;SDS011;46541;49.894;10.886;2022-10-23T15:34:50;7.63;;;3.05;;
60700;SDS011;46541;49.894;10.886;2022-10-23T15:37:18;4.20;;;2.92;;
60700;SDS011;46541;49.894;10.886;2022-10-23T15:39:45;2.58;;;2.13;;
60700;SDS011;46541;49.894;10.886;2022-10-23T15:42:12;8.68;;;4.80;;
60700;SDS011;46541;49.894;10.886;2022-10-23T15:44:39;8.90;;;6.13;;
60700;SDS011;46541;49.894;10.886;2022-10-23T15:47:06;6.53;;;4.07;;
60700;SDS011;46541;49.894;10.886;2022-10-23T15:49:33;4.05;;;2.63;;
60700;SDS011;46541;49.894;10.886;2022-10-23T15:52:00;3.25;;;2.85;;
60700;SDS011;46541;49.894;10.886;2022-10-23T15:54:28;2.42;;;1.88;;
60700;SDS011;46541;49.894;10.886;2022-10-23T15:56:58;4.28;;;2.28;;
60700;SDS011;46541;49.894;10.886;2022-10-23T15:59:26;2.45;;;2.13;;
60700;SDS011;46541;49.894;10.886;2022-10-23T16:01:54;2.97;;;2.10;;
60700;SDS011;46541;49.894;10.886;2022-10-23T16:04:22;3.47;;;1.80;;
60700;SDS011;46541;49.894;10.886;2022-10-23T16:06:49;3.88;;;1.90;;
60700;SDS011;46541;49.894;10.886;2022-10-23T16:09:16;3.45;;;2.22;;
60700;SDS011;46541;49.894;10.886;2022-10-23T16:11:43;3.83;;;2.83;;
60700;SDS011;46541;49.894;10.886;2022-10-23T16:14:13;4.90;;;3.67;;
60700;SDS011;46541;49.894;10.886;2022-10-23T16:16:41;2.97;;;2.45;;
60700;SDS011;46541;49.894;10.886;2022-10-23T16:19:09;5.65;;;2.10;;
60700;SDS011;46541;49.894;10.886;2022-10-23T16:21:36;3.67;;;2.42;;
60700;SDS011;46541;49.894;10.886;2022-10-23T16:24:04;3.65;;;2.55;;
60700;SDS011;46541;49.894;10.886;2022-10-23T16:26:32;7.00;;;2.55;;
60700;SDS011;46541;49.894;10.886;2022-10-23T16:29:01;7.20;;;4.68;;
60700;SDS011;46541;49.894;10.886;2022-10-23T16:31:30;9.32;;;3.35;;
60700;SDS011;46541;49.894;10.886;2022-10-23T16:33:58;3.88;;;2.88;;
60700;SDS011;46541;49.894;10.886;2022-10-23T16:36:26;7.15;;;3.83;;
60700;SDS011;46541;49.894;10.886;2022-10-23T16:38:53;4.32;;;2.53;;
60700;SDS011;46541;49.894;10.886;2022-10-23T16:41:20;6.97;;;3.72;;
60700;SDS011;46541;49.894;10.886;2022-10-23T16:43:46;5.63;;;3.70;;
60700;SDS011;46541;49.894;10.886;2022-10-23T16:46:14;3.92;;;3.38;;
60700;SDS011;46541;49.894;10.886;2022-10-23T16:48:43;5.80;;;3.03;;
60700;SDS011;46541;49.894;10.886;2022-10-23T16:51:11;4.40;;;3.33;;
60700;SDS011;46541;49.894;10.886;2022-10-23T16:53:40;6.05;;;4.18;;
60700;SDS011;46541;49.894;10.886;2022-10-23T16:56:09;5.50;;;2.95;;
60700;SDS011;46541;49.894;10.886;2022-10-23T16:58:36;4.43;;;2.95;;
60700;SDS011;46541;49.894;10.886;2022-10-23T17:01:07;4.72;;;2.97;;
60700;SDS011;46541;49.894;10.886;2022-10-23T17:03:36;5.72;;;2.90;;
60700;SDS011;46541;49.894;10.886;2022-10-23T17:06:05;6.75;;;3.67;;
60700;SDS011;46541;49.894;10.886;2022-10-23T17:08:36;3.55;;;2.75;;
60700;SDS011;46541;49.894;10.886;2022-10-23T17:11:04;3.45;;;2.65;;
60700;SDS011;46541;49.894;10.886;2022-10-23T17:13:37;4.90;;;3.45;;
60700;SDS011;46541;49.894;10.886;2022-10-23T17:16:10;4.25;;;3.17;;
60700;SDS011;46541;49.894;10.886;2022-10-23T17:18:42;4.15;;;3.00;;
60700;SDS011;46541;49.894;10.886;2022-10-23T17:21:09;7.22;;;3.72;;
60700;SDS011;46541;49.894;10.886;2022-10-23T17:23:38;5.40;;;2.80;;
60700;SDS011;46541;49.894;10.886;2022-10-23T17:26:08;7.70;;;4.03;;
60700;SDS011;46541;49.894;10.886;2022-10-23T17:28:37;4.72;;;3.22;;
60700;SDS011;46541;49.894;10.886;2022-10-23T17:33:37;6.85;;;3.63;;
60700;SDS011;46541;49.894;10.886;2022-10-23T17:36:04;9.65;;;3.92;;